Terminal Aerodrome Forecast
Issued by NWS

Home | Current Version | Previous Version | Text Only | Print | Product List | Glossary Off
Versions: 1 2 3 4 5 6 7 8 9 10 11 12 13

000
FTUS43 KBIS 192326
TAFDIK
TAF
KDIK 192326Z 2000/2024 32015G23KT P6SM FEW250
     FM200200 33009KT P6SM SCT200
     FM200600 36008KT P6SM FEW120 SCT200
     FM201700 08006KT P6SM FEW130 SCT200
     FM202000 13006KT P6SM FEW130 SCT200=

USA.gov is the U.S. government's official web portal to all federal, state and local government web resources and services.